Opal, WY

12:15 AM MDT on November 01, 2014 (GMT -0600)
Kemmerer | Change Station
CLOSE
Current Station
Personal Weather Station
Location: Kemmerer, WY
Elevation: 6985 ft
Nearby Weather Stations

Elev 6985 ft 41.80 °N, 110.54 °W | Updated 5 seconds ago

Clear
Clear
34.9 °F
Feels Like 35 °F
N
3.0
Wind Variable Wind from North
Gusts 5.0 mph

Today
High -- | Low -- °F
--% Chance of Precip.
Yesterday
High -- | Low -- °F
Precip. -- in
7:53 AM 6:15 PM
Waxing Gibbous, 63% visible
Pressure 29.99 in
Visibility 10.0 miles
Clouds Clear
Windchill 35 °F
Dew Point 19 °F
Humidity 52%
Rainfall 0.00 in
Snow Depth Not available.
UV 0 out of 12
Pollen 1.70 out of 12
Air Quality Not available.
Flu Activity Not available.
METAR KEMM 010555Z AUTO 35006KT 10SM CLR 05/M05 A2999 RMK AO2

More Conditions Fewer Conditions

Pressure 29.99 in
Visibility 10.0 miles
Clouds Clear
Windchill 35 °F
Dew Point 19 °F
Humidity 52%
Rainfall 0.00 in
Snow Depth Not available.
UV 0 out of 12
Pollen 1.70 out of 12
Air Quality Not available.
Flu Activity Not available.
METAR KEMM 010555Z AUTO 35006KT 10SM CLR 05/M05 A2999 RMK AO2

More Conditions Fewer Conditions

10-Day Weather Forecast

Almanac

Astronomy

Nov. 01, 2014 Rise Set
Actual Time
Civil Twilight
Nautical Twilight
Astronomical Twilight
Moon
Length of Visible Light
Length of Day
Tomorrow will be .
, % of the Moon is Illuminated

Today's Extremes

State Highs State Lows

Community

WunderPhotos

Upload Photos

1,766,866 photos uploaded!

WunderBlogs® & News

Nearby

Air Quality

  Air Quality AQ Index Pollutant
Not available.

Snow Depth

Station Depth Elevation

Earthquake Activity

City Distance Mag. Time & Date
Minimum magnitude displayed is 2.5.

Coastal Water Temperatures

Place Temperature

Nearby Weather Stations